sensor_id;sensor_type;location;lat;lon;timestamp;pressure;altitude;pressure_sealevel;temperature;humidity
61898;BME280;47850;50.274;18.908;2023-08-08T00:02:28;97783.55;;;12.41;100.00
61898;BME280;47850;50.274;18.908;2023-08-08T00:04:56;97786.91;;;12.40;100.00
61898;BME280;47850;50.274;18.908;2023-08-08T00:07:24;97789.33;;;12.40;100.00
61898;BME280;47850;50.274;18.908;2023-08-08T00:09:52;97794.77;;;12.40;100.00
61898;BME280;47850;50.274;18.908;2023-08-08T00:12:19;97797.89;;;12.39;100.00
61898;BME280;47850;50.274;18.908;2023-08-08T00:14:47;97794.89;;;12.39;100.00
61898;BME280;47850;50.274;18.908;2023-08-08T00:17:15;97798.26;;;12.39;100.00
61898;BME280;47850;50.274;18.908;2023-08-08T00:19:43;97797.23;;;12.38;100.00
61898;BME280;47850;50.274;18.908;2023-08-08T00:22:10;97797.04;;;12.37;100.00
61898;BME280;47850;50.274;18.908;2023-08-08T00:24:38;97795.90;;;12.36;100.00
61898;BME280;47850;50.274;18.908;2023-08-08T00:27:06;97797.88;;;12.35;100.00
61898;BME280;47850;50.274;18.908;2023-08-08T00:29:34;97797.42;;;12.33;100.00
61898;BME280;47850;50.274;18.908;2023-08-08T00:32:02;97796.34;;;12.30;100.00
61898;BME280;47850;50.274;18.908;2023-08-08T00:34:33;97797.76;;;12.28;100.00
61898;BME280;47850;50.274;18.908;2023-08-08T00:37:00;97797.80;;;12.27;100.00
61898;BME280;47850;50.274;18.908;2023-08-08T00:39:28;97804.00;;;12.28;100.00
61898;BME280;47850;50.274;18.908;2023-08-08T00:41:56;97804.82;;;12.27;100.00
61898;BME280;47850;50.274;18.908;2023-08-08T00:44:24;97803.77;;;12.26;100.00
61898;BME280;47850;50.274;18.908;2023-08-08T00:46:52;97804.73;;;12.24;100.00
61898;BME280;47850;50.274;18.908;2023-08-08T00:49:20;97809.35;;;12.24;100.00
61898;BME280;47850;50.274;18.908;2023-08-08T00:51:48;97810.45;;;12.22;100.00
61898;BME280;47850;50.274;18.908;2023-08-08T00:54:16;97812.69;;;12.19;100.00
61898;BME280;47850;50.274;18.908;2023-08-08T00:56:44;97807.58;;;12.16;100.00
61898;BME280;47850;50.274;18.908;2023-08-08T00:59:13;97813.16;;;12.12;100.00
61898;BME280;47850;50.274;18.908;2023-08-08T01:01:43;97816.46;;;12.06;100.00
61898;BME280;47850;50.274;18.908;2023-08-08T01:04:12;97818.11;;;12.00;100.00
61898;BME280;47850;50.274;18.908;2023-08-08T01:06:51;97822.77;;;11.93;100.00
61898;BME280;47850;50.274;18.908;2023-08-08T01:09:28;97825.02;;;11.86;100.00
61898;BME280;47850;50.274;18.908;2023-08-08T01:11:58;97823.31;;;11.79;100.00
61898;BME280;47850;50.274;18.908;2023-08-08T01:14:29;97821.95;;;11.74;100.00
61898;BME280;47850;50.274;18.908;2023-08-08T01:16:58;97819.98;;;11.69;100.00
61898;BME280;47850;50.274;18.908;2023-08-08T01:19:28;97819.57;;;11.64;100.00
61898;BME280;47850;50.274;18.908;2023-08-08T01:22:04;97819.35;;;11.60;100.00
61898;BME280;47850;50.274;18.908;2023-08-08T01:24:33;97821.79;;;11.56;100.00
61898;BME280;47850;50.274;18.908;2023-08-08T01:27:04;97823.84;;;11.53;100.00
61898;BME280;47850;50.274;18.908;2023-08-08T01:29:34;97823.86;;;11.49;100.00
61898;BME280;47850;50.274;18.908;2023-08-08T01:32:01;97829.48;;;11.47;100.00
61898;BME280;47850;50.274;18.908;2023-08-08T01:34:29;97827.66;;;11.44;100.00
61898;BME280;47850;50.274;18.908;2023-08-08T01:37:04;97826.63;;;11.41;100.00
61898;BME280;47850;50.274;18.908;2023-08-08T01:39:35;97823.79;;;11.39;100.00
61898;BME280;47850;50.274;18.908;2023-08-08T01:42:06;97821.67;;;11.36;100.00
61898;BME280;47850;50.274;18.908;2023-08-08T01:44:34;97825.65;;;11.34;100.00
61898;BME280;47850;50.274;18.908;2023-08-08T01:47:03;97826.41;;;11.33;100.00
61898;BME280;47850;50.274;18.908;2023-08-08T01:49:31;97828.46;;;11.32;100.00
61898;BME280;47850;50.274;18.908;2023-08-08T01:51:58;97823.66;;;11.31;100.00
61898;BME280;47850;50.274;18.908;2023-08-08T01:54:26;97825.98;;;11.30;100.00
61898;BME280;47850;50.274;18.908;2023-08-08T01:56:54;97827.89;;;11.29;100.00
61898;BME280;47850;50.274;18.908;2023-08-08T01:59:22;97823.52;;;11.29;100.00
61898;BME280;47850;50.274;18.908;2023-08-08T02:01:50;97825.00;;;11.27;100.00
61898;BME280;47850;50.274;18.908;2023-08-08T02:04:19;97820.11;;;11.25;100.00
61898;BME280;47850;50.274;18.908;2023-08-08T02:06:47;97820.31;;;11.23;100.00
61898;BME280;47850;50.274;18.908;2023-08-08T02:09:15;97824.61;;;11.19;100.00
61898;BME280;47850;50.274;18.908;2023-08-08T02:11:43;97825.20;;;11.16;100.00
61898;BME280;47850;50.274;18.908;2023-08-08T02:14:10;97831.97;;;11.13;100.00
61898;BME280;47850;50.274;18.908;2023-08-08T02:16:38;97832.13;;;11.09;100.00
61898;BME280;47850;50.274;18.908;2023-08-08T02:19:07;97832.25;;;11.06;100.00
61898;BME280;47850;50.274;18.908;2023-08-08T02:21:34;97832.67;;;11.03;100.00
61898;BME280;47850;50.274;18.908;2023-08-08T02:24:02;97836.64;;;11.00;100.00
61898;BME280;47850;50.274;18.908;2023-08-08T02:26:30;97838.62;;;10.97;100.00
61898;BME280;47850;50.274;18.908;2023-08-08T02:28:58;97836.08;;;10.96;100.00
61898;BME280;47850;50.274;18.908;2023-08-08T02:31:26;97837.98;;;10.95;100.00
61898;BME280;47850;50.274;18.908;2023-08-08T02:33:53;97838.76;;;10.95;100.00
61898;BME280;47850;50.274;18.908;2023-08-08T02:36:22;97839.80;;;10.96;100.00
61898;BME280;47850;50.274;18.908;2023-08-08T02:38:50;97835.48;;;10.95;100.00
61898;BME280;47850;50.274;18.908;2023-08-08T02:41:20;97837.95;;;10.94;100.00
61898;BME280;47850;50.274;18.908;2023-08-08T02:43:48;97840.23;;;10.95;100.00
61898;BME280;47850;50.274;18.908;2023-08-08T02:46:16;97845.40;;;10.95;100.00
61898;BME280;47850;50.274;18.908;2023-08-08T02:48:44;97840.04;;;10.96;100.00
61898;BME280;47850;50.274;18.908;2023-08-08T02:51:12;97849.42;;;10.97;100.00
61898;BME280;47850;50.274;18.908;2023-08-08T02:53:39;97844.71;;;10.97;100.00
61898;BME280;47850;50.274;18.908;2023-08-08T02:56:07;97849.52;;;10.99;100.00
61898;BME280;47850;50.274;18.908;2023-08-08T02:58:35;97849.32;;;11.00;100.00
61898;BME280;47850;50.274;18.908;2023-08-08T03:01:03;97854.93;;;11.02;100.00
61898;BME280;47850;50.274;18.908;2023-08-08T03:03:30;97858.33;;;11.03;100.00
61898;BME280;47850;50.274;18.908;2023-08-08T03:05:58;97859.48;;;11.05;100.00
61898;BME280;47850;50.274;18.908;2023-08-08T03:08:26;97857.36;;;11.07;100.00
61898;BME280;47850;50.274;18.908;2023-08-08T03:10:55;97863.78;;;11.09;100.00
61898;BME280;47850;50.274;18.908;2023-08-08T03:13:23;97867.88;;;11.10;100.00
61898;BME280;47850;50.274;18.908;2023-08-08T03:15:50;97869.83;;;11.12;100.00
61898;BME280;47850;50.274;18.908;2023-08-08T03:18:18;97873.52;;;11.13;100.00
61898;BME280;47850;50.274;18.908;2023-08-08T03:20:46;97884.05;;;11.14;100.00
61898;BME280;47850;50.274;18.908;2023-08-08T03:23:15;97883.95;;;11.14;100.00
61898;BME280;47850;50.274;18.908;2023-08-08T03:25:43;97885.37;;;11.15;100.00
61898;BME280;47850;50.274;18.908;2023-08-08T03:28:10;97886.27;;;11.16;100.00
61898;BME280;47850;50.274;18.908;2023-08-08T03:30:38;97893.73;;;11.18;100.00
61898;BME280;47850;50.274;18.908;2023-08-08T03:33:06;97898.08;;;11.19;99.87
61898;BME280;47850;50.274;18.908;2023-08-08T03:35:34;97901.79;;;11.20;99.82
61898;BME280;47850;50.274;18.908;2023-08-08T03:38:02;97902.42;;;11.22;99.62
61898;BME280;47850;50.274;18.908;2023-08-08T03:40:30;97902.64;;;11.24;99.60
61898;BME280;47850;50.274;18.908;2023-08-08T03:42:58;97906.52;;;11.25;99.50
61898;BME280;47850;50.274;18.908;2023-08-08T03:45:27;97906.80;;;11.26;99.28
61898;BME280;47850;50.274;18.908;2023-08-08T03:47:55;97910.26;;;11.27;99.12
61898;BME280;47850;50.274;18.908;2023-08-08T03:50:22;97911.67;;;11.28;98.95
61898;BME280;47850;50.274;18.908;2023-08-08T03:52:50;97912.59;;;11.29;98.98
61898;BME280;47850;50.274;18.908;2023-08-08T03:55:18;97913.01;;;11.30;98.94
61898;BME280;47850;50.274;18.908;2023-08-08T03:57:46;97916.05;;;11.32;99.03
61898;BME280;47850;50.274;18.908;2023-08-08T04:00:14;97915.02;;;11.33;98.95
61898;BME280;47850;50.274;18.908;2023-08-08T04:02:42;97921.10;;;11.36;98.74
61898;BME280;47850;50.274;18.908;2023-08-08T04:05:10;97923.65;;;11.37;98.57
61898;BME280;47850;50.274;18.908;2023-08-08T04:07:39;97930.06;;;11.40;98.42
61898;BME280;47850;50.274;18.908;2023-08-08T04:10:08;97933.14;;;11.41;98.16
61898;BME280;47850;50.274;18.908;2023-08-08T04:12:36;97934.08;;;11.42;98.03
61898;BME280;47850;50.274;18.908;2023-08-08T04:15:04;97937.30;;;11.45;97.84
61898;BME280;47850;50.274;18.908;2023-08-08T04:17:32;97935.96;;;11.47;97.70
61898;BME280;47850;50.274;18.908;2023-08-08T04:20:00;97938.35;;;11.48;97.69
61898;BME280;47850;50.274;18.908;2023-08-08T04:22:28;97943.93;;;11.51;97.50
61898;BME280;47850;50.274;18.908;2023-08-08T04:24:55;97942.39;;;11.53;97.28
61898;BME280;47850;50.274;18.908;2023-08-08T04:27:23;97940.73;;;11.55;97.45
61898;BME280;47850;50.274;18.908;2023-08-08T04:29:51;97954.09;;;11.57;97.46
61898;BME280;47850;50.274;18.908;2023-08-08T04:32:19;97960.05;;;11.59;97.13
61898;BME280;47850;50.274;18.908;2023-08-08T04:34:46;97956.68;;;11.58;97.05
61898;BME280;47850;50.274;18.908;2023-08-08T04:37:14;97958.42;;;11.57;96.89
61898;BME280;47850;50.274;18.908;2023-08-08T04:39:42;97964.59;;;11.57;96.71
61898;BME280;47850;50.274;18.908;2023-08-08T04:42:10;97969.98;;;11.57;96.84
61898;BME280;47850;50.274;18.908;2023-08-08T04:44:37;97973.08;;;11.56;96.72
61898;BME280;47850;50.274;18.908;2023-08-08T04:47:05;97975.36;;;11.57;96.84
61898;BME280;47850;50.274;18.908;2023-08-08T04:49:33;97986.24;;;11.58;96.84
61898;BME280;47850;50.274;18.908;2023-08-08T04:52:01;97985.27;;;11.59;96.33
61898;BME280;47850;50.274;18.908;2023-08-08T04:54:29;97989.86;;;11.60;96.15
61898;BME280;47850;50.274;18.908;2023-08-08T04:56:56;97991.11;;;11.65;96.21
61898;BME280;47850;50.274;18.908;2023-08-08T04:59:24;97988.89;;;11.70;96.05
61898;BME280;47850;50.274;18.908;2023-08-08T05:01:52;97991.29;;;11.73;95.82
61898;BME280;47850;50.274;18.908;2023-08-08T05:04:20;97996.81;;;11.75;95.65
61898;BME280;47850;50.274;18.908;2023-08-08T05:06:48;97999.58;;;11.75;95.29
61898;BME280;47850;50.274;18.908;2023-08-08T05:09:15;98000.10;;;11.77;95.10
61898;BME280;47850;50.274;18.908;2023-08-08T05:11:43;97998.38;;;11.79;94.91
61898;BME280;47850;50.274;18.908;2023-08-08T05:14:11;98001.77;;;11.82;94.81
61898;BME280;47850;50.274;18.908;2023-08-08T05:16:39;98001.33;;;11.85;94.72
61898;BME280;47850;50.274;18.908;2023-08-08T05:19:08;97997.77;;;11.90;94.60
61898;BME280;47850;50.274;18.908;2023-08-08T05:21:35;97996.20;;;11.95;94.61
61898;BME280;47850;50.274;18.908;2023-08-08T05:24:04;97998.08;;;12.04;94.41
61898;BME280;47850;50.274;18.908;2023-08-08T05:26:32;97996.67;;;12.08;93.82
61898;BME280;47850;50.274;18.908;2023-08-08T05:28:59;97995.77;;;12.13;94.01
61898;BME280;47850;50.274;18.908;2023-08-08T05:31:27;97999.70;;;12.16;93.36
61898;BME280;47850;50.274;18.908;2023-08-08T05:33:55;98001.27;;;12.18;92.73
61898;BME280;47850;50.274;18.908;2023-08-08T05:36:23;98004.48;;;12.25;92.93
61898;BME280;47850;50.274;18.908;2023-08-08T05:38:51;98008.39;;;12.34;92.49
61898;BME280;47850;50.274;18.908;2023-08-08T05:41:19;98008.84;;;12.39;91.79
61898;BME280;47850;50.274;18.908;2023-08-08T05:43:46;98009.23;;;12.42;91.33
61898;BME280;47850;50.274;18.908;2023-08-08T05:46:14;98007.46;;;12.41;91.28
61898;BME280;47850;50.274;18.908;2023-08-08T05:48:42;98008.73;;;12.37;90.73
61898;BME280;47850;50.274;18.908;2023-08-08T05:51:09;98010.46;;;12.33;90.45
61898;BME280;47850;50.274;18.908;2023-08-08T05:53:37;98007.30;;;12.32;90.52
61898;BME280;47850;50.274;18.908;2023-08-08T05:56:05;98003.31;;;12.34;90.75
61898;BME280;47850;50.274;18.908;2023-08-08T05:58:33;98007.42;;;12.37;90.70
61898;BME280;47850;50.274;18.908;2023-08-08T06:01:01;98004.38;;;12.40;90.13
61898;BME280;47850;50.274;18.908;2023-08-08T06:03:29;98006.81;;;12.44;90.43
61898;BME280;47850;50.274;18.908;2023-08-08T06:05:56;98008.67;;;12.50;90.44
61898;BME280;47850;50.274;18.908;2023-08-08T06:08:24;98009.51;;;12.54;88.71
61898;BME280;47850;50.274;18.908;2023-08-08T06:10:52;98008.71;;;12.58;88.25
61898;BME280;47850;50.274;18.908;2023-08-08T06:13:20;98008.29;;;12.64;88.01
61898;BME280;47850;50.274;18.908;2023-08-08T06:15:48;98019.13;;;12.70;87.07
61898;BME280;47850;50.274;18.908;2023-08-08T06:18:16;98019.04;;;12.76;87.07
61898;BME280;47850;50.274;18.908;2023-08-08T06:20:44;98022.30;;;12.82;86.89
61898;BME280;47850;50.274;18.908;2023-08-08T06:23:12;98024.99;;;12.88;86.67
61898;BME280;47850;50.274;18.908;2023-08-08T06:25:40;98020.52;;;12.95;87.09
61898;BME280;47850;50.274;18.908;2023-08-08T06:28:08;98025.14;;;13.00;85.34
61898;BME280;47850;50.274;18.908;2023-08-08T06:30:36;98025.81;;;13.03;84.69
61898;BME280;47850;50.274;18.908;2023-08-08T06:33:03;98024.54;;;13.07;84.72
61898;BME280;47850;50.274;18.908;2023-08-08T06:35:31;98026.51;;;13.12;84.83
61898;BME280;47850;50.274;18.908;2023-08-08T06:37:59;98021.45;;;13.18;84.34
61898;BME280;47850;50.274;18.908;2023-08-08T06:40:27;98017.88;;;13.26;84.89
61898;BME280;47850;50.274;18.908;2023-08-08T06:42:54;98018.41;;;13.35;84.98
61898;BME280;47850;50.274;18.908;2023-08-08T06:45:22;98016.73;;;13.43;84.43
61898;BME280;47850;50.274;18.908;2023-08-08T06:47:50;98016.05;;;13.50;84.33
61898;BME280;47850;50.274;18.908;2023-08-08T06:50:18;98016.20;;;13.58;83.17
61898;BME280;47850;50.274;18.908;2023-08-08T06:52:46;98012.25;;;13.65;82.64
61898;BME280;47850;50.274;18.908;2023-08-08T06:55:14;98015.41;;;13.72;81.85
61898;BME280;47850;50.274;18.908;2023-08-08T06:57:42;98017.91;;;13.78;81.08
61898;BME280;47850;50.274;18.908;2023-08-08T07:00:10;98009.95;;;13.81;81.51
61898;BME280;47850;50.274;18.908;2023-08-08T07:02:39;98009.04;;;13.87;80.87
61898;BME280;47850;50.274;18.908;2023-08-08T07:05:07;98005.41;;;13.92;80.64
61898;BME280;47850;50.274;18.908;2023-08-08T07:07:37;98007.64;;;14.01;80.48
61898;BME280;47850;50.274;18.908;2023-08-08T07:10:06;98003.56;;;14.14;80.42
61898;BME280;47850;50.274;18.908;2023-08-08T07:12:34;98004.67;;;14.23;78.82
61898;BME280;47850;50.274;18.908;2023-08-08T07:15:02;98002.39;;;14.28;78.95
61898;BME280;47850;50.274;18.908;2023-08-08T07:17:30;98000.27;;;14.39;79.28
61898;BME280;47850;50.274;18.908;2023-08-08T07:19:57;98001.41;;;14.49;78.69
61898;BME280;47850;50.274;18.908;2023-08-08T07:22:25;98001.29;;;14.62;79.02
61898;BME280;47850;50.274;18.908;2023-08-08T07:24:53;98001.88;;;14.77;76.65
61898;BME280;47850;50.274;18.908;2023-08-08T07:27:21;98004.44;;;14.85;76.23
61898;BME280;47850;50.274;18.908;2023-08-08T07:29:49;98003.70;;;14.90;75.11
61898;BME280;47850;50.274;18.908;2023-08-08T07:32:17;98005.59;;;14.96;74.39
61898;BME280;47850;50.274;18.908;2023-08-08T07:34:45;98006.53;;;15.06;73.13
61898;BME280;47850;50.274;18.908;2023-08-08T07:37:14;98009.15;;;15.22;72.41
61898;BME280;47850;50.274;18.908;2023-08-08T07:39:42;98004.48;;;15.37;70.80
61898;BME280;47850;50.274;18.908;2023-08-08T07:42:09;97999.77;;;15.42;71.45
61898;BME280;47850;50.274;18.908;2023-08-08T07:44:37;97995.71;;;15.50;71.38
61898;BME280;47850;50.274;18.908;2023-08-08T07:47:06;97995.25;;;15.58;70.98
61898;BME280;47850;50.274;18.908;2023-08-08T07:49:34;97993.45;;;15.65;70.76
61898;BME280;47850;50.274;18.908;2023-08-08T07:52:02;97993.84;;;15.65;70.92
61898;BME280;47850;50.274;18.908;2023-08-08T07:54:30;97996.44;;;15.62;69.97
61898;BME280;47850;50.274;18.908;2023-08-08T07:56:58;98001.48;;;15.55;69.41
61898;BME280;47850;50.274;18.908;2023-08-08T07:59:26;98003.34;;;15.52;68.12
61898;BME280;47850;50.274;18.908;2023-08-08T08:01:54;97996.40;;;15.57;68.24
61898;BME280;47850;50.274;18.908;2023-08-08T08:04:21;97995.30;;;15.67;68.79
61898;BME280;47850;50.274;18.908;2023-08-08T08:06:49;97992.78;;;15.80;67.69
61898;BME280;47850;50.274;18.908;2023-08-08T08:09:17;97990.17;;;15.86;66.22
61898;BME280;47850;50.274;18.908;2023-08-08T08:11:45;97987.23;;;15.88;65.59
61898;BME280;47850;50.274;18.908;2023-08-08T08:14:13;97980.77;;;15.88;66.49
61898;BME280;47850;50.274;18.908;2023-08-08T08:16:41;97974.34;;;15.95;67.35
61898;BME280;47850;50.274;18.908;2023-08-08T08:19:08;97971.56;;;16.08;65.80
61898;BME280;47850;50.274;18.908;2023-08-08T08:21:36;97972.25;;;16.26;65.83
61898;BME280;47850;50.274;18.908;2023-08-08T08:24:04;97971.24;;;16.39;62.52
61898;BME280;47850;50.274;18.908;2023-08-08T08:26:33;97963.67;;;16.43;63.99
61898;BME280;47850;50.274;18.908;2023-08-08T08:29:00;97962.70;;;16.53;64.86
61898;BME280;47850;50.274;18.908;2023-08-08T08:31:28;97965.21;;;16.61;63.17
61898;BME280;47850;50.274;18.908;2023-08-08T08:33:56;97961.68;;;16.57;62.21
61898;BME280;47850;50.274;18.908;2023-08-08T08:36:24;97965.23;;;16.58;61.95
61898;BME280;47850;50.274;18.908;2023-08-08T08:38:53;97970.12;;;16.67;62.32
61898;BME280;47850;50.274;18.908;2023-08-08T08:41:25;97960.92;;;16.82;60.72
61898;BME280;47850;50.274;18.908;2023-08-08T08:43:54;97960.98;;;16.92;60.95
61898;BME280;47850;50.274;18.908;2023-08-08T08:46:25;97953.96;;;16.96;60.79
61898;BME280;47850;50.274;18.908;2023-08-08T08:48:54;97960.28;;;17.05;61.64
61898;BME280;47850;50.274;18.908;2023-08-08T08:51:24;97960.35;;;17.20;59.40
61898;BME280;47850;50.274;18.908;2023-08-08T08:53:52;97964.35;;;17.28;59.33
61898;BME280;47850;50.274;18.908;2023-08-08T08:56:20;97961.73;;;17.22;57.45
61898;BME280;47850;50.274;18.908;2023-08-08T08:58:48;97963.05;;;17.02;58.29
61898;BME280;47850;50.274;18.908;2023-08-08T09:01:16;97963.50;;;16.88;59.78
61898;BME280;47850;50.274;18.908;2023-08-08T09:03:45;97964.43;;;16.79;59.77
61898;BME280;47850;50.274;18.908;2023-08-08T09:06:14;97966.15;;;16.74;59.35
61898;BME280;47850;50.274;18.908;2023-08-08T09:08:43;97967.58;;;16.71;59.40
61898;BME280;47850;50.274;18.908;2023-08-08T09:11:13;97972.05;;;16.57;60.48
61898;BME280;47850;50.274;18.908;2023-08-08T09:13:41;97986.44;;;16.40;62.10
61898;BME280;47850;50.274;18.908;2023-08-08T09:16:09;97985.10;;;16.25;64.20
61898;BME280;47850;50.274;18.908;2023-08-08T09:18:37;97981.71;;;16.13;66.38
61898;BME280;47850;50.274;18.908;2023-08-08T09:21:10;97978.98;;;16.10;68.43
61898;BME280;47850;50.274;18.908;2023-08-08T09:23:37;97976.02;;;16.12;69.76
61898;BME280;47850;50.274;18.908;2023-08-08T09:26:06;97975.23;;;16.15;71.00
61898;BME280;47850;50.274;18.908;2023-08-08T09:28:34;97977.45;;;16.20;71.63
61898;BME280;47850;50.274;18.908;2023-08-08T09:31:02;97978.19;;;16.24;71.86
61898;BME280;47850;50.274;18.908;2023-08-08T09:33:30;97968.24;;;16.35;72.63
61898;BME280;47850;50.274;18.908;2023-08-08T09:35:58;97976.09;;;16.59;72.44
61898;BME280;47850;50.274;18.908;2023-08-08T09:38:26;97972.91;;;16.74;72.18
61898;BME280;47850;50.274;18.908;2023-08-08T09:40:54;97972.54;;;16.88;72.07
61898;BME280;47850;50.274;18.908;2023-08-08T09:43:22;97971.77;;;16.96;71.79
61898;BME280;47850;50.274;18.908;2023-08-08T09:45:51;97969.48;;;16.96;70.45
61898;BME280;47850;50.274;18.908;2023-08-08T09:48:19;97978.45;;;16.96;69.23
61898;BME280;47850;50.274;18.908;2023-08-08T09:50:47;97981.98;;;17.00;68.01
61898;BME280;47850;50.274;18.908;2023-08-08T09:53:16;97988.63;;;16.89;62.68
61898;BME280;47850;50.274;18.908;2023-08-08T09:55:46;97987.27;;;16.76;62.00
61898;BME280;47850;50.274;18.908;2023-08-08T09:58:14;97995.06;;;16.68;60.98
61898;BME280;47850;50.274;18.908;2023-08-08T10:00:42;97984.79;;;16.57;61.52
61898;BME280;47850;50.274;18.908;2023-08-08T10:03:10;97977.02;;;16.58;62.22
61898;BME280;47850;50.274;18.908;2023-08-08T10:05:38;97975.29;;;16.70;62.07
61898;BME280;47850;50.274;18.908;2023-08-08T10:08:06;97968.41;;;16.90;60.85
61898;BME280;47850;50.274;18.908;2023-08-08T10:10:35;97969.79;;;17.05;60.95
61898;BME280;47850;50.274;18.908;2023-08-08T10:13:03;97959.31;;;17.28;61.41
61898;BME280;47850;50.274;18.908;2023-08-08T10:15:37;97957.95;;;17.58;60.42
61898;BME280;47850;50.274;18.908;2023-08-08T10:18:05;97952.21;;;17.81;58.67
61898;BME280;47850;50.274;18.908;2023-08-08T10:20:35;97951.86;;;17.73;56.43
61898;BME280;47850;50.274;18.908;2023-08-08T10:23:03;97948.36;;;17.55;56.46
61898;BME280;47850;50.274;18.908;2023-08-08T10:25:34;97959.80;;;17.30;56.30
61898;BME280;47850;50.274;18.908;2023-08-08T10:28:04;97954.52;;;17.01;56.13
61898;BME280;47850;50.274;18.908;2023-08-08T10:33:24;97963.19;;;16.54;60.03
61898;BME280;47850;50.274;18.908;2023-08-08T10:36:05;97965.01;;;16.42;60.63
61898;BME280;47850;50.274;18.908;2023-08-08T10:38:47;97965.27;;;16.35;61.02
61898;BME280;47850;50.274;18.908;2023-08-08T10:41:18;97970.64;;;16.33;61.04
61898;BME280;47850;50.274;18.908;2023-08-08T10:43:57;97973.73;;;16.26;61.03
61898;BME280;47850;50.274;18.908;2023-08-08T10:46:31;97980.71;;;16.19;60.47
61898;BME280;47850;50.274;18.908;2023-08-08T10:49:00;97985.11;;;16.10;60.41
61898;BME280;47850;50.274;18.908;2023-08-08T10:51:37;97985.45;;;16.07;60.47
61898;BME280;47850;50.274;18.908;2023-08-08T10:54:07;97983.86;;;16.18;60.74
61898;BME280;47850;50.274;18.908;2023-08-08T10:56:39;97981.02;;;16.45;60.49
61898;BME280;47850;50.274;18.908;2023-08-08T10:59:15;97983.25;;;16.80;59.22
61898;BME280;47850;50.274;18.908;2023-08-08T11:01:47;97974.78;;;17.21;59.88
61898;BME280;47850;50.274;18.908;2023-08-08T11:04:20;97979.49;;;17.66;56.32
61898;BME280;47850;50.274;18.908;2023-08-08T11:06:49;97977.43;;;17.93;55.56
61898;BME280;47850;50.274;18.908;2023-08-08T11:09:17;97972.15;;;17.96;55.32
61898;BME280;47850;50.274;18.908;2023-08-08T11:11:45;97973.58;;;18.04;56.61
61898;BME280;47850;50.274;18.908;2023-08-08T11:14:16;97974.19;;;18.20;54.83
61898;BME280;47850;50.274;18.908;2023-08-08T11:16:45;97969.09;;;18.42;54.04
61898;BME280;47850;50.274;18.908;2023-08-08T11:19:14;97971.70;;;18.73;52.83
61898;BME280;47850;50.274;18.908;2023-08-08T11:21:43;97974.05;;;18.88;48.13
61898;BME280;47850;50.274;18.908;2023-08-08T11:24:12;97970.11;;;18.79;48.48
61898;BME280;47850;50.274;18.908;2023-08-08T11:26:42;97968.41;;;18.75;48.05
61898;BME280;47850;50.274;18.908;2023-08-08T11:29:11;97970.20;;;18.71;48.68
61898;BME280;47850;50.274;18.908;2023-08-08T11:31:39;97975.94;;;18.70;48.12
61898;BME280;47850;50.274;18.908;2023-08-08T11:34:08;97972.68;;;18.61;47.39
61898;BME280;47850;50.274;18.908;2023-08-08T11:36:38;97974.16;;;18.67;48.38
61898;BME280;47850;50.274;18.908;2023-08-08T11:39:07;97971.05;;;19.10;47.94
61898;BME280;47850;50.274;18.908;2023-08-08T11:41:37;97976.86;;;19.44;46.70
61898;BME280;47850;50.274;18.908;2023-08-08T11:44:06;97979.89;;;19.91;45.55
61898;BME280;47850;50.274;18.908;2023-08-08T11:46:46;97975.76;;;20.37;45.20
61898;BME280;47850;50.274;18.908;2023-08-08T11:49:16;97980.83;;;20.62;42.42
61898;BME280;47850;50.274;18.908;2023-08-08T11:51:45;97983.13;;;20.42;42.20
61898;BME280;47850;50.274;18.908;2023-08-08T11:54:13;97987.95;;;20.21;42.59
61898;BME280;47850;50.274;18.908;2023-08-08T11:56:41;97989.32;;;20.09;42.86
61898;BME280;47850;50.274;18.908;2023-08-08T11:59:09;97993.36;;;19.97;43.41
61898;BME280;47850;50.274;18.908;2023-08-08T12:01:37;97996.36;;;19.97;43.74
61898;BME280;47850;50.274;18.908;2023-08-08T12:04:06;97994.89;;;19.99;43.68
61898;BME280;47850;50.274;18.908;2023-08-08T12:06:37;98004.42;;;19.95;42.37
61898;BME280;47850;50.274;18.908;2023-08-08T12:09:11;97993.83;;;20.10;43.21
61898;BME280;47850;50.274;18.908;2023-08-08T12:11:40;98002.19;;;20.58;43.47
61898;BME280;47850;50.274;18.908;2023-08-08T12:14:08;98002.33;;;21.09;42.15
61898;BME280;47850;50.274;18.908;2023-08-08T12:16:42;98000.70;;;21.31;39.33
61898;BME280;47850;50.274;18.908;2023-08-08T12:19:11;98001.10;;;21.57;40.60
61898;BME280;47850;50.274;18.908;2023-08-08T12:21:40;97998.70;;;21.82;40.29
61898;BME280;47850;50.274;18.908;2023-08-08T12:24:08;98002.20;;;21.81;39.83
61898;BME280;47850;50.274;18.908;2023-08-08T12:26:36;97994.27;;;21.66;39.49
61898;BME280;47850;50.274;18.908;2023-08-08T12:29:04;97988.40;;;21.50;40.52
61898;BME280;47850;50.274;18.908;2023-08-08T12:31:32;97998.39;;;21.36;40.38
61898;BME280;47850;50.274;18.908;2023-08-08T12:34:00;97987.77;;;21.20;41.54
61898;BME280;47850;50.274;18.908;2023-08-08T12:36:28;97986.25;;;21.25;41.51
61898;BME280;47850;50.274;18.908;2023-08-08T12:38:56;97986.73;;;21.16;41.07
61898;BME280;47850;50.274;18.908;2023-08-08T12:41:25;97992.41;;;20.99;40.57
61898;BME280;47850;50.274;18.908;2023-08-08T12:43:53;97989.77;;;20.79;40.92
61898;BME280;47850;50.274;18.908;2023-08-08T12:46:21;97997.45;;;20.63;40.85
61898;BME280;47850;50.274;18.908;2023-08-08T12:48:48;97996.95;;;20.53;40.48
61898;BME280;47850;50.274;18.908;2023-08-08T12:51:16;97998.88;;;20.43;40.80
61898;BME280;47850;50.274;18.908;2023-08-08T12:53:44;97993.05;;;20.29;41.24
61898;BME280;47850;50.274;18.908;2023-08-08T12:56:12;97994.41;;;20.14;41.57
61898;BME280;47850;50.274;18.908;2023-08-08T12:58:40;97991.95;;;19.99;41.97